sensor_id;sensor_type;location;lat;lon;timestamp;P1;durP1;ratioP1;P2;durP2;ratioP2
26474;SDS011;14161;52.270;10.334;2023-01-01T00:00:07;10.90;;;3.50;;
26474;SDS011;14161;52.270;10.334;2023-01-01T00:09:00;8.48;;;2.60;;
26474;SDS011;14161;52.270;10.334;2023-01-01T00:11:44;6.75;;;2.72;;
26474;SDS011;14161;52.270;10.334;2023-01-01T00:27:42;7.22;;;2.08;;
26474;SDS011;14161;52.270;10.334;2023-01-01T04:02:33;8.57;;;2.88;;
26474;SDS011;14161;52.270;10.334;2023-01-01T04:05:03;5.10;;;2.63;;
26474;SDS011;14161;52.270;10.334;2023-01-01T04:07:31;5.55;;;2.88;;
26474;SDS011;14161;52.270;10.334;2023-01-01T04:09:58;7.15;;;2.80;;
26474;SDS011;14161;52.270;10.334;2023-01-01T04:12:25;7.65;;;2.67;;
26474;SDS011;14161;52.270;10.334;2023-01-01T04:14:51;6.82;;;3.35;;
26474;SDS011;14161;52.270;10.334;2023-01-01T04:20:43;9.98;;;3.28;;
26474;SDS011;14161;52.270;10.334;2023-01-01T04:23:09;9.20;;;3.30;;
26474;SDS011;14161;52.270;10.334;2023-01-01T04:25:34;5.65;;;2.67;;
26474;SDS011;14161;52.270;10.334;2023-01-01T04:28:03;4.45;;;2.55;;
26474;SDS011;14161;52.270;10.334;2023-01-01T04:30:28;10.38;;;3.72;;
26474;SDS011;14161;52.270;10.334;2023-01-01T04:32:54;6.32;;;3.65;;
26474;SDS011;14161;52.270;10.334;2023-01-01T04:35:20;8.40;;;3.28;;
26474;SDS011;14161;52.270;10.334;2023-01-01T04:37:45;7.22;;;3.13;;
26474;SDS011;14161;52.270;10.334;2023-01-01T04:40:11;5.97;;;3.17;;
26474;SDS011;14161;52.270;10.334;2023-01-01T04:42:38;6.63;;;3.40;;
26474;SDS011;14161;52.270;10.334;2023-01-01T04:45:04;7.75;;;3.03;;
26474;SDS011;14161;52.270;10.334;2023-01-01T04:47:30;6.60;;;3.30;;
26474;SDS011;14161;52.270;10.334;2023-01-01T04:49:55;5.03;;;3.47;;
26474;SDS011;14161;52.270;10.334;2023-01-01T04:52:21;6.90;;;3.20;;
26474;SDS011;14161;52.270;10.334;2023-01-01T04:54:46;8.90;;;3.30;;
26474;SDS011;14161;52.270;10.334;2023-01-01T04:57:12;7.07;;;3.40;;
26474;SDS011;14161;52.270;10.334;2023-01-01T04:59:37;5.07;;;2.63;;
26474;SDS011;14161;52.270;10.334;2023-01-01T05:02:03;6.40;;;2.83;;
26474;SDS011;14161;52.270;10.334;2023-01-01T05:04:28;5.10;;;3.05;;
26474;SDS011;14161;52.270;10.334;2023-01-01T05:06:54;7.40;;;2.90;;
26474;SDS011;14161;52.270;10.334;2023-01-01T05:09:19;4.15;;;2.63;;
26474;SDS011;14161;52.270;10.334;2023-01-01T05:11:45;4.57;;;2.65;;
26474;SDS011;14161;52.270;10.334;2023-01-01T05:14:10;7.65;;;3.05;;
26474;SDS011;14161;52.270;10.334;2023-01-01T05:16:36;4.18;;;2.65;;
26474;SDS011;14161;52.270;10.334;2023-01-01T05:19:03;8.07;;;2.83;;
26474;SDS011;14161;52.270;10.334;2023-01-01T05:21:30;5.30;;;2.95;;
26474;SDS011;14161;52.270;10.334;2023-01-01T05:23:58;7.30;;;3.10;;
26474;SDS011;14161;52.270;10.334;2023-01-01T05:26:28;6.72;;;3.45;;
26474;SDS011;14161;52.270;10.334;2023-01-01T05:28:56;8.25;;;3.25;;
26474;SDS011;14161;52.270;10.334;2023-01-01T05:31:23;7.20;;;3.72;;
26474;SDS011;14161;52.270;10.334;2023-01-01T05:33:51;5.20;;;3.33;;
26474;SDS011;14161;52.270;10.334;2023-01-01T05:36:23;5.00;;;3.10;;
26474;SDS011;14161;52.270;10.334;2023-01-01T05:38:51;8.35;;;3.15;;
26474;SDS011;14161;52.270;10.334;2023-01-01T05:41:17;8.00;;;3.65;;
26474;SDS011;14161;52.270;10.334;2023-01-01T05:43:43;4.97;;;3.10;;
26474;SDS011;14161;52.270;10.334;2023-01-01T05:46:10;5.75;;;3.30;;
26474;SDS011;14161;52.270;10.334;2023-01-01T05:48:38;9.73;;;4.07;;
26474;SDS011;14161;52.270;10.334;2023-01-01T05:51:08;6.10;;;3.60;;
26474;SDS011;14161;52.270;10.334;2023-01-01T05:53:38;12.00;;;4.05;;
26474;SDS011;14161;52.270;10.334;2023-01-01T05:56:04;5.30;;;3.78;;
26474;SDS011;14161;52.270;10.334;2023-01-01T05:58:30;6.63;;;3.58;;
26474;SDS011;14161;52.270;10.334;2023-01-01T06:01:04;5.38;;;3.10;;
26474;SDS011;14161;52.270;10.334;2023-01-01T06:03:54;5.10;;;3.22;;
26474;SDS011;14161;52.270;10.334;2023-01-01T06:06:27;6.13;;;3.83;;
26474;SDS011;14161;52.270;10.334;2023-01-01T06:08:55;8.07;;;3.65;;
26474;SDS011;14161;52.270;10.334;2023-01-01T06:11:21;9.55;;;3.97;;
26474;SDS011;14161;52.270;10.334;2023-01-01T06:13:47;6.60;;;3.92;;
26474;SDS011;14161;52.270;10.334;2023-01-01T06:16:16;9.57;;;4.63;;
26474;SDS011;14161;52.270;10.334;2023-01-01T06:18:41;5.82;;;3.13;;
26474;SDS011;14161;52.270;10.334;2023-01-01T06:21:11;5.68;;;3.40;;
26474;SDS011;14161;52.270;10.334;2023-01-01T06:23:38;7.78;;;3.67;;
26474;SDS011;14161;52.270;10.334;2023-01-01T06:26:04;6.43;;;4.05;;
26474;SDS011;14161;52.270;10.334;2023-01-01T06:28:30;8.50;;;3.90;;
26474;SDS011;14161;52.270;10.334;2023-01-01T06:30:58;12.30;;;4.25;;
26474;SDS011;14161;52.270;10.334;2023-01-01T06:33:25;4.97;;;3.58;;
26474;SDS011;14161;52.270;10.334;2023-01-01T06:35:50;4.30;;;3.30;;
26474;SDS011;14161;52.270;10.334;2023-01-01T06:38:16;9.23;;;3.55;;
26474;SDS011;14161;52.270;10.334;2023-01-01T06:40:41;6.85;;;4.22;;
26474;SDS011;14161;52.270;10.334;2023-01-01T06:43:07;5.18;;;3.35;;
26474;SDS011;14161;52.270;10.334;2023-01-01T06:45:32;7.38;;;3.75;;
26474;SDS011;14161;52.270;10.334;2023-01-01T06:48:00;8.40;;;4.80;;
26474;SDS011;14161;52.270;10.334;2023-01-01T06:50:25;9.15;;;3.67;;
26474;SDS011;14161;52.270;10.334;2023-01-01T06:52:51;6.10;;;3.95;;
26474;SDS011;14161;52.270;10.334;2023-01-01T06:55:16;7.03;;;4.03;;
26474;SDS011;14161;52.270;10.334;2023-01-01T06:57:42;6.82;;;3.95;;
26474;SDS011;14161;52.270;10.334;2023-01-01T17:05:24;3.70;;;2.13;;
26474;SDS011;14161;52.270;10.334;2023-01-01T17:07:50;2.55;;;1.50;;
26474;SDS011;14161;52.270;10.334;2023-01-01T17:10:20;2.70;;;1.63;;
26474;SDS011;14161;52.270;10.334;2023-01-01T17:13:04;3.22;;;1.75;;
26474;SDS011;14161;52.270;10.334;2023-01-01T17:15:30;4.57;;;1.65;;
26474;SDS011;14161;52.270;10.334;2023-01-01T17:18:04;3.28;;;1.75;;
26474;SDS011;14161;52.270;10.334;2023-01-01T17:20:30;3.05;;;1.80;;
26474;SDS011;14161;52.270;10.334;2023-01-01T17:22:58;5.22;;;2.00;;
26474;SDS011;14161;52.270;10.334;2023-01-01T17:25:29;4.18;;;2.22;;
26474;SDS011;14161;52.270;10.334;2023-01-01T17:28:01;4.22;;;2.67;;
26474;SDS011;14161;52.270;10.334;2023-01-01T17:30:26;5.28;;;2.75;;
26474;SDS011;14161;52.270;10.334;2023-01-01T17:32:52;5.03;;;2.50;;
26474;SDS011;14161;52.270;10.334;2023-01-01T17:35:17;5.03;;;2.17;;
26474;SDS011;14161;52.270;10.334;2023-01-01T17:37:47;5.32;;;2.20;;
26474;SDS011;14161;52.270;10.334;2023-01-01T17:40:12;4.85;;;2.80;;
26474;SDS011;14161;52.270;10.334;2023-01-01T17:42:38;5.60;;;2.22;;
26474;SDS011;14161;52.270;10.334;2023-01-01T17:45:14;5.95;;;2.42;;
26474;SDS011;14161;52.270;10.334;2023-01-01T17:47:45;4.88;;;2.85;;
26474;SDS011;14161;52.270;10.334;2023-01-01T17:50:14;8.30;;;2.95;;
26474;SDS011;14161;52.270;10.334;2023-01-01T17:52:39;7.40;;;2.20;;
26474;SDS011;14161;52.270;10.334;2023-01-01T17:55:05;3.50;;;1.83;;
26474;SDS011;14161;52.270;10.334;2023-01-01T17:57:34;3.30;;;2.00;;
26474;SDS011;14161;52.270;10.334;2023-01-01T18:00:00;6.20;;;2.53;;
26474;SDS011;14161;52.270;10.334;2023-01-01T18:02:37;4.55;;;2.00;;
26474;SDS011;14161;52.270;10.334;2023-01-01T18:05:03;6.35;;;2.10;;
26474;SDS011;14161;52.270;10.334;2023-01-01T18:07:29;6.03;;;2.28;;
26474;SDS011;14161;52.270;10.334;2023-01-01T18:09:55;3.78;;;2.30;;
26474;SDS011;14161;52.270;10.334;2023-01-01T18:12:23;5.57;;;2.15;;
26474;SDS011;14161;52.270;10.334;2023-01-01T18:14:49;2.28;;;1.58;;
26474;SDS011;14161;52.270;10.334;2023-01-01T18:17:16;5.05;;;1.95;;
26474;SDS011;14161;52.270;10.334;2023-01-01T18:19:41;3.85;;;2.08;;
26474;SDS011;14161;52.270;10.334;2023-01-01T18:22:07;4.50;;;2.60;;
26474;SDS011;14161;52.270;10.334;2023-01-01T18:24:32;5.18;;;2.38;;
26474;SDS011;14161;52.270;10.334;2023-01-01T18:26:58;4.95;;;2.33;;
26474;SDS011;14161;52.270;10.334;2023-01-01T18:29:24;3.55;;;1.98;;
26474;SDS011;14161;52.270;10.334;2023-01-01T18:31:49;4.13;;;1.60;;
26474;SDS011;14161;52.270;10.334;2023-01-01T18:34:15;3.25;;;1.95;;
26474;SDS011;14161;52.270;10.334;2023-01-01T18:36:41;3.10;;;1.52;;
26474;SDS011;14161;52.270;10.334;2023-01-01T18:39:19;3.55;;;1.90;;
26474;SDS011;14161;52.270;10.334;2023-01-01T18:42:10;4.97;;;1.98;;
26474;SDS011;14161;52.270;10.334;2023-01-01T18:45:21;3.85;;;1.75;;
26474;SDS011;14161;52.270;10.334;2023-01-01T18:47:53;3.70;;;2.30;;
26474;SDS011;14161;52.270;10.334;2023-01-01T18:50:20;3.70;;;1.90;;
26474;SDS011;14161;52.270;10.334;2023-01-01T18:55:43;3.05;;;1.75;;
26474;SDS011;14161;52.270;10.334;2023-01-01T18:58:20;2.67;;;1.30;;
26474;SDS011;14161;52.270;10.334;2023-01-01T19:03:55;3.72;;;1.73;;
26474;SDS011;14161;52.270;10.334;2023-01-01T19:06:30;3.13;;;1.70;;
26474;SDS011;14161;52.270;10.334;2023-01-01T19:11:50;2.13;;;1.40;;
26474;SDS011;14161;52.270;10.334;2023-01-01T19:21:27;5.15;;;2.08;;
26474;SDS011;14161;52.270;10.334;2023-01-01T19:27:23;4.85;;;1.88;;
26474;SDS011;14161;52.270;10.334;2023-01-01T19:59:08;3.20;;;1.83;;
26474;SDS011;14161;52.270;10.334;2023-01-01T20:32:56;7.07;;;2.55;;
26474;SDS011;14161;52.270;10.334;2023-01-01T20:38:44;3.10;;;2.13;;
26474;SDS011;14161;52.270;10.334;2023-01-01T20:41:09;3.35;;;2.00;;
26474;SDS011;14161;52.270;10.334;2023-01-01T20:43:47;4.25;;;2.47;;
26474;SDS011;14161;52.270;10.334;2023-01-01T20:46:13;4.00;;;2.72;;
26474;SDS011;14161;52.270;10.334;2023-01-01T20:48:39;7.47;;;2.38;;
26474;SDS011;14161;52.270;10.334;2023-01-01T20:51:04;5.47;;;2.70;;
26474;SDS011;14161;52.270;10.334;2023-01-01T20:53:30;5.00;;;1.98;;
26474;SDS011;14161;52.270;10.334;2023-01-01T20:55:55;3.55;;;2.42;;
26474;SDS011;14161;52.270;10.334;2023-01-01T20:58:21;6.18;;;2.13;;
26474;SDS011;14161;52.270;10.334;2023-01-01T21:00:47;3.95;;;2.08;;
26474;SDS011;14161;52.270;10.334;2023-01-01T21:03:12;4.47;;;1.90;;
